Time;durP1;ratioP1;P1;durP2;ratioP2;P2;SDS_P1;SDS_P2;PMS_P1;PMS_P2;Temp;Humidity;BMP_temperature;BMP_pressure;BME280_temperature;BME280_humidity;BME280_pressure;Samples;Min_cycle;Max_cycle;Signal;HPM_P1;HPM_P2
2021/07/17 00:01:38;;;;;;;;;13.50;13.50;;;;;19.50;57.10;101767.53;5023485;28;45672;-80
2021/07/17 00:04:04;;;;;;;;;14.75;14.00;;;;;19.56;57.14;101785.59;5023105;28;45512;-80
2021/07/17 00:06:31;;;;;;;;;14.50;13.75;;;;;19.55;56.98;101785.72;5022947;28;45536;-81
2021/07/17 00:08:56;;;;;;;;;15.25;13.00;;;;;19.53;57.24;101795.69;5020976;28;45537;-80
2021/07/17 00:11:23;;;;;;;;;15.50;14.50;;;;;19.48;57.07;101793.44;5019446;28;45555;-81
2021/07/17 00:13:48;;;;;;;;;14.50;13.00;;;;;19.39;57.21;101774.75;5015431;28;45775;-81
2021/07/17 00:16:19;;;;;;;;;18.75;13.25;;;;;19.40;57.16;101787.94;5015663;28;46611;-80
2021/07/17 00:18:45;;;;;;;;;17.75;16.25;;;;;19.35;58.03;101808.75;5015742;28;45567;-80
2021/07/17 00:21:11;;;;;;;;;15.50;14.75;;;;;19.26;58.02;101785.66;5015551;28;45563;-81
2021/07/17 00:26:58;;;;;;;;;15.25;14.50;;;;;19.20;57.68;101799.50;5014664;28;45547;-80
2021/07/17 00:29:23;;;;;;;;;16.75;16.50;;;;;19.17;58.14;101789.97;5014887;28;46015;-81
2021/07/17 00:31:48;;;;;;;;;14.25;14.25;;;;;19.14;58.17;101792.06;5014945;28;45465;-80
2021/07/17 00:34:14;;;;;;;;;18.50;15.25;;;;;19.11;58.14;101784.38;5014924;28;45481;-81
2021/07/17 00:36:39;;;;;;;;;16.75;14.00;;;;;19.09;58.37;101781.00;5014874;28;45519;-80
2021/07/17 00:39:05;;;;;;;;;17.25;15.75;;;;;18.89;58.13;101750.03;5014987;28;46302;-80
2021/07/17 00:41:30;;;;;;;;;15.75;15.00;;;;;19.02;58.67;101780.69;5014933;28;45656;-81
2021/07/17 00:43:56;;;;;;;;;13.75;13.00;;;;;19.03;58.61;101782.38;5014969;28;45762;-80
2021/07/17 00:46:21;;;;;;;;;19.75;16.00;;;;;19.00;58.58;101779.97;5014635;28;46414;-80
2021/07/17 00:48:47;;;;;;;;;15.25;15.00;;;;;19.01;58.93;101772.84;5014647;28;45887;-80
2021/07/17 00:51:15;;;;;;;;;17.25;16.50;;;;;18.94;58.82;101777.88;5014803;28;45544;-80
2021/07/17 00:57:03;;;;;;;;;16.25;14.75;;;;;18.86;59.06;101773.22;5013957;28;45787;-80
2021/07/17 00:59:33;;;;;;;;;15.25;13.00;;;;;18.85;59.16;101771.53;5014168;28;46074;-81
2021/07/17 01:02:01;;;;;;;;;14.25;13.00;;;;;18.86;58.85;101783.84;5014789;28;45762;-79
2021/07/17 01:04:28;;;;;;;;;16.50;15.50;;;;;18.82;59.32;101784.25;5014656;28;45814;-80
2021/07/17 01:06:53;;;;;;;;;17.75;15.25;;;;;18.81;59.67;101799.34;5014520;28;46508;-80
2021/07/17 01:09:19;;;;;;;;;18.25;15.25;;;;;18.72;59.51;101791.34;5014378;28;45659;-80
2021/07/17 01:11:46;;;;;;;;;19.25;16.00;;;;;18.71;59.52;101785.19;5014614;28;45936;-80
2021/07/17 01:14:11;;;;;;;;;17.75;15.75;;;;;18.71;59.85;101782.53;5014723;28;45662;-80
2021/07/17 01:16:38;;;;;;;;;16.00;15.00;;;;;18.65;60.18;101784.88;5014258;28;46356;-80
2021/07/17 01:19:03;;;;;;;;;18.75;15.75;;;;;18.59;60.24;101780.94;5014510;28;46358;-79
2021/07/17 01:21:29;;;;;;;;;17.00;16.25;;;;;18.60;60.25;101789.75;5014391;28;45686;-80
2021/07/17 01:27:17;;;;;;;;;18.50;18.25;;;;;18.44;60.46;101776.91;5014228;28;46012;-80
2021/07/17 01:29:44;;;;;;;;;11.25;11.25;;;;;18.43;60.24;101775.22;5014395;28;46097;-81
2021/07/17 01:32:10;;;;;;;;;14.25;13.75;;;;;18.44;60.78;101775.09;5014656;28;45496;-81
2021/07/17 01:34:36;;;;;;;;;13.50;13.00;;;;;18.41;60.75;101780.66;5014462;28;45552;-80
2021/07/17 01:37:02;;;;;;;;;17.00;16.00;;;;;18.40;60.37;101775.50;5013965;28;45537;-81
2021/07/17 01:39:27;;;;;;;;;16.50;16.00;;;;;18.44;60.75;101784.88;5013672;28;46291;-80
2021/07/17 01:41:53;;;;;;;;;16.75;15.50;;;;;18.42;60.71;101771.72;5014078;28;45415;-81
2021/07/17 01:44:18;;;;;;;;;15.00;15.00;;;;;18.43;60.87;101781.38;5014208;28;45529;-81
2021/07/17 01:46:47;;;;;;;;;18.75;16.75;;;;;18.40;60.84;101773.69;4996290;28;46334;-81
2021/07/17 01:49:13;;;;;;;;;18.25;16.50;;;;;18.38;60.95;101767.66;5014083;28;45998;-80
2021/07/17 01:51:39;;;;;;;;;18.25;17.00;;;;;18.42;60.92;101776.19;5014205;28;45624;-81
2021/07/17 01:57:26;;;;;;;;;18.00;16.50;;;;;18.34;60.77;101779.50;5012715;28;46164;-79
2021/07/17 01:59:52;;;;;;;;;20.00;17.00;;;;;18.34;60.84;101773.38;5014774;28;45877;-81
2021/07/17 02:02:17;;;;;;;;;16.25;14.75;;;;;18.31;61.02;101776.25;5018477;28;45520;-81
2021/07/17 02:04:42;;;;;;;;;17.25;16.25;;;;;18.17;61.46;101753.56;5018685;28;45775;-79
2021/07/17 02:07:08;;;;;;;;;18.50;17.50;;;;;18.20;61.48;101771.03;5018354;28;46384;-80
2021/07/17 02:09:34;;;;;;;;;18.75;16.75;;;;;18.20;61.90;101773.66;5018071;28;46398;-80
2021/07/17 02:12:04;;;;;;;;;19.00;17.75;;;;;18.17;61.36;101784.56;5018152;28;45638;-81
2021/07/17 02:14:41;;;;;;;;;15.50;15.25;;;;;18.03;61.84;101764.47;5024778;28;45557;-81
2021/07/17 02:17:08;;;;;;;;;20.50;17.75;;;;;18.00;61.95;101765.59;5023782;28;45576;-79
2021/07/17 02:19:34;;;;;;;;;18.00;16.00;;;;;18.08;61.76;101786.19;5023502;28;46673;-80
2021/07/17 02:21:59;;;;;;;;;19.75;17.50;;;;;18.02;62.46;101768.97;5023812;28;45784;-80
2021/07/17 02:27:46;;;;;;;;;18.50;18.00;;;;;17.89;62.53;101763.00;5018159;28;46008;-80
2021/07/17 02:30:12;;;;;;;;;20.50;17.00;;;;;17.89;62.25;101773.59;5016953;28;46270;-81
2021/07/17 02:32:38;;;;;;;;;19.25;17.50;;;;;17.83;62.74;101771.47;5017627;28;45612;-80
2021/07/17 02:35:04;;;;;;;;;15.25;14.75;;;;;17.83;62.56;101775.91;5016872;28;45590;-81
2021/07/17 02:37:30;;;;;;;;;16.00;15.50;;;;;17.63;62.50;101747.56;5016772;28;46426;-79
2021/07/17 02:39:55;;;;;;;;;17.50;16.00;;;;;17.74;62.87;101771.38;5016679;28;45605;-80
2021/07/17 02:42:21;;;;;;;;;16.50;16.50;;;;;17.76;62.70;101780.06;5016907;28;45563;-79
2021/07/17 02:44:46;;;;;;;;;18.50;17.75;;;;;17.50;63.09;101747.69;5016849;28;45535;-80
2021/07/17 02:47:13;;;;;;;;;20.00;17.50;;;;;17.62;63.54;101773.22;5016885;28;45768;-81
2021/07/17 02:49:38;;;;;;;;;20.00;18.75;;;;;17.60;62.92;101770.69;5016609;28;46245;-80
2021/07/17 02:52:04;;;;;;;;;20.75;18.00;;;;;17.59;63.19;101778.75;5016843;28;45579;-81
2021/07/17 02:57:51;;;;;;;;;19.00;16.75;;;;;17.51;63.23;101768.78;5011755;28;45984;-80
2021/07/17 03:00:17;;;;;;;;;19.25;16.75;;;;;17.46;63.79;101765.66;5016634;28;45670;-81
2021/07/17 03:02:42;;;;;;;;;19.75;17.25;;;;;17.48;63.63;101765.53;4998065;28;45821;-81
2021/07/17 03:05:08;;;;;;;;;20.00;16.50;;;;;17.45;63.48;101773.72;5017217;28;45706;-80
2021/07/17 03:07:34;;;;;;;;;21.67;20.00;;;;;17.43;63.86;101780.97;5017148;28;46320;-80
2021/07/17 03:10:00;;;;;;;;;19.00;18.00;;;;;17.31;63.67;101761.63;5016715;28;46426;-80
2021/07/17 03:12:25;;;;;;;;;23.25;20.25;;;;;17.32;64.13;101770.41;5016271;28;45563;-80
2021/07/17 03:14:50;;;;;;;;;19.25;17.00;;;;;17.36;63.87;101777.13;5016766;28;45555;-80
2021/07/17 03:17:16;;;;;;;;;20.25;18.75;;;;;17.36;64.46;101777.13;4998149;28;48652;-80
2021/07/17 03:19:42;;;;;;;;;21.25;19.00;;;;;17.27;64.31;101768.13;5016064;28;46141;-81
2021/07/17 03:22:08;;;;;;;;;19.50;18.50;;;;;17.30;64.47;101778.47;5015993;28;45989;-80
2021/07/17 03:27:55;;;;;;;;;18.25;17.75;;;;;17.11;64.77;101762.38;5015988;28;45674;-80
2021/07/17 03:30:21;;;;;;;;;20.25;19.50;;;;;17.20;64.64;101773.06;5016152;28;45807;-80
2021/07/17 03:32:46;;;;;;;;;23.25;19.25;;;;;17.14;64.54;101772.72;5016636;28;45687;-81
2021/07/17 03:35:12;;;;;;;;;20.75;17.50;;;;;17.16;64.67;101776.94;5015763;28;45630;-80
2021/07/17 03:37:37;;;;;;;;;20.00;17.00;;;;;17.16;64.67;101773.44;5015678;28;46546;-80
2021/07/17 03:40:04;;;;;;;;;25.25;20.25;;;;;17.07;64.70;101769.72;5015595;28;45772;-79
2021/07/17 03:42:30;;;;;;;;;21.75;18.75;;;;;17.17;64.75;101783.06;4997675;28;45780;-81
2021/07/17 03:44:55;;;;;;;;;23.50;22.25;;;;;17.13;65.23;101768.38;5015521;28;45497;-81
2021/07/17 03:47:21;;;;;;;;;23.00;19.00;;;;;17.09;64.78;101764.31;5015415;28;46177;-80
2021/07/17 03:49:46;;;;;;;;;23.75;19.50;;;;;17.12;65.18;101778.13;5015143;28;45759;-81
2021/07/17 03:52:12;;;;;;;;;21.75;20.75;;;;;17.13;65.05;101773.69;5015475;28;45579;-79
2021/07/17 03:57:59;;;;;;;;;25.75;21.00;;;;;17.11;65.48;101770.31;5013643;28;45548;-81
2021/07/17 04:00:24;;;;;;;;;22.50;21.00;;;;;16.87;65.13;101735.19;5015294;28;46215;-81
2021/07/17 04:02:50;;;;;;;;;24.75;22.50;;;;;17.12;65.15;101783.44;5015304;28;45480;-79
2021/07/17 04:05:19;;;;;;;;;25.75;21.50;;;;;17.12;65.37;101783.44;5015223;28;45937;-80
2021/07/17 04:07:44;;;;;;;;;23.75;20.00;;;;;17.12;65.40;101786.06;4997001;28;47675;-80
2021/07/17 04:10:12;;;;;;;;;22.00;21.00;;;;;16.84;65.33;101738.94;5015312;28;45717;-80
2021/07/17 04:12:37;;;;;;;;;19.75;18.50;;;;;17.12;65.64;101782.56;5015408;28;45571;-79
2021/07/17 04:15:05;;;;;;;;;17.75;16.25;;;;;17.13;65.30;101786.91;5015067;28;45770;-81
2021/07/17 04:17:30;;;;;;;;;26.50;20.75;;;;;17.14;65.50;101793.91;5015177;28;46571;-80
2021/07/17 04:19:56;;;;;;;;;22.50;19.25;;;;;17.15;65.36;101799.09;4996889;28;46991;-80
2021/07/17 04:22:21;;;;;;;;;22.00;19.75;;;;;17.00;65.20;101763.25;5014777;28;45479;-81
2021/07/17 04:28:08;;;;;;;;;22.25;20.50;;;;;17.14;65.55;101786.81;5018709;28;45575;-80
2021/07/17 04:30:34;;;;;;;;;22.75;21.75;;;;;17.10;65.47;101792.47;5018411;28;45739;-80
2021/07/17 04:32:59;;;;;;;;;25.50;22.50;;;;;17.06;65.51;101783.06;5018132;28;45556;-81
2021/07/17 04:35:26;;;;;;;;;23.25;22.25;;;;;17.12;65.69;101790.53;5019839;28;45854;-80
2021/07/17 04:37:51;;;;;;;;;23.00;20.75;;;;;17.12;65.68;101787.88;5020557;28;45654;-78
2021/07/17 04:40:17;;;;;;;;;21.50;20.50;;;;;17.06;65.78;101791.00;5020535;28;45576;-80
2021/07/17 04:42:42;;;;;;;;;20.00;18.25;;;;;17.10;65.65;101787.19;5021719;28;45630;-80
2021/07/17 04:45:08;;;;;;;;;26.75;22.75;;;;;17.06;65.95;101781.25;5021023;28;45527;-80
2021/07/17 04:47:35;;;;;;;;;23.75;20.00;;;;;17.10;65.90;101792.47;5018304;28;45756;-80
2021/07/17 04:50:02;;;;;;;;;24.75;22.75;;;;;17.09;66.04;101793.44;5015088;28;46375;-80
2021/07/17 04:52:29;;;;;;;;;22.50;20.25;;;;;17.04;65.97;101785.84;5014118;28;45638;-81
2021/07/17 04:58:16;;;;;;;;;22.25;19.25;;;;;17.05;66.20;101792.00;5010988;28;46065;-82
2021/07/17 05:00:41;;;;;;;;;25.00;21.75;;;;;16.95;66.21;101794.50;5013696;28;45651;-81
2021/07/17 05:03:07;;;;;;;;;24.25;22.00;;;;;17.04;66.08;101800.91;5013650;28;45681;-80
2021/07/17 05:05:32;;;;;;;;;25.25;22.50;;;;;17.01;66.09;101801.13;5013709;28;45693;-80
2021/07/17 05:07:57;;;;;;;;;28.25;24.25;;;;;17.02;66.40;101808.09;5013742;28;45766;-80
2021/07/17 05:10:25;;;;;;;;;23.00;20.00;;;;;17.02;66.17;101811.59;5013853;28;45689;-80
2021/07/17 05:12:52;;;;;;;;;29.00;22.25;;;;;16.91;66.03;101798.38;5013334;28;46017;-80
2021/07/17 05:15:19;;;;;;;;;26.50;23.00;;;;;16.98;66.32;101806.69;5013728;28;45624;-79
2021/07/17 05:17:44;;;;;;;;;23.25;20.25;;;;;16.81;66.38;101772.75;5013479;28;45653;-81
2021/07/17 05:20:11;;;;;;;;;21.25;18.25;;;;;16.92;66.20;101791.25;5013639;28;46151;-80
2021/07/17 05:22:37;;;;;;;;;23.25;21.25;;;;;16.88;65.97;101787.19;5013624;28;45792;-80
2021/07/17 05:28:24;;;;;;;;;24.25;21.25;;;;;17.02;66.36;101808.09;5012989;28;46145;-80
2021/07/17 05:30:50;;;;;;;;;24.50;23.75;;;;;16.95;66.69;101799.00;5013079;28;46060;-80
2021/07/17 05:33:16;;;;;;;;;26.25;23.75;;;;;16.91;66.33;101795.72;5012982;28;45827;-80
2021/07/17 05:35:42;;;;;;;;;29.50;23.00;;;;;16.65;66.60;101759.88;5016057;28;46013;-79
2021/07/17 05:38:08;;;;;;;;;27.75;24.75;;;;;16.97;66.38;101799.69;5016984;28;46571;-79
2021/07/17 05:40:34;;;;;;;;;24.00;21.50;;;;;16.97;66.66;101800.53;5016895;28;46154;-81
2021/07/17 05:43:00;;;;;;;;;24.00;20.25;;;;;17.00;66.36;101800.31;5016551;28;45623;-81
2021/07/17 05:45:25;;;;;;;;;24.75;24.00;;;;;16.93;66.71;101785.00;5016793;28;45580;-80
2021/07/17 05:47:51;;;;;;;;;25.25;21.00;;;;;17.00;66.87;101802.97;5016491;28;46444;-81
2021/07/17 05:50:19;;;;;;;;;21.50;20.75;;;;;17.02;66.38;101793.06;5016470;28;45627;-81
2021/07/17 05:52:45;;;;;;;;;21.50;21.00;;;;;17.04;66.72;101799.09;5016255;28;45810;-81
2021/07/17 05:58:32;;;;;;;;;25.00;21.00;;;;;17.05;66.78;101792.84;5013253;28;46192;-81
2021/07/17 06:00:58;;;;;;;;;21.75;20.50;;;;;17.06;66.64;101797.16;5016643;28;45979;-79
2021/07/17 06:03:25;;;;;;;;;23.75;20.75;;;;;16.82;66.71;101747.97;5016397;28;45603;-79
2021/07/17 06:05:50;;;;;;;;;25.00;21.75;;;;;16.86;66.50;101774.06;5016463;28;45610;-79
2021/07/17 06:08:15;;;;;;;;;20.00;18.00;;;;;17.12;66.86;101803.75;5016246;28;46528;-79
2021/07/17 06:10:41;;;;;;;;;21.25;19.00;;;;;16.62;66.65;101723.91;5016280;28;46016;-80
2021/07/17 06:13:07;;;;;;;;;22.00;20.00;;;;;16.94;67.05;101776.97;5016278;28;45744;-79
2021/07/17 06:15:32;;;;;;;;;23.00;21.25;;;;;16.85;67.25;101758.28;5016361;28;45688;-81
2021/07/17 06:17:58;;;;;;;;;23.25;20.00;;;;;17.00;66.88;101789.72;5016177;28;46221;-80
2021/07/17 06:20:23;;;;;;;;;24.00;21.75;;;;;17.02;66.86;101790.41;4998410;28;48020;-80
2021/07/17 06:22:49;;;;;;;;;24.50;20.75;;;;;17.06;67.23;101799.78;5016037;28;45591;-80
2021/07/17 06:28:38;;;;;;;;;21.25;20.00;;;;;17.05;67.31;101789.34;5016042;28;46164;-79
2021/07/17 06:31:03;;;;;;;;;27.00;22.50;;;;;17.06;67.27;101796.31;5016224;28;46033;-80
2021/07/17 06:33:28;;;;;;;;;23.25;21.50;;;;;17.08;67.21;101803.19;5015830;28;45575;-80
2021/07/17 06:35:54;;;;;;;;;31.50;22.25;;;;;17.15;67.30;101811.47;5016201;28;45719;-80
2021/07/17 06:38:20;;;;;;;;;27.00;24.50;;;;;17.17;67.46;101814.84;5016058;28;45581;-79
2021/07/17 06:40:45;;;;;;;;;27.50;23.50;;;;;17.20;67.18;101825.19;5016433;28;46339;-80
2021/07/17 06:43:10;;;;;;;;;27.75;23.75;;;;;17.11;67.24;101802.09;5015812;28;45539;-81
2021/07/17 06:45:36;;;;;;;;;27.25;24.75;;;;;16.99;67.02;101779.25;4997651;28;45848;-80
2021/07/17 06:48:01;;;;;;;;;29.00;24.75;;;;;17.19;67.02;101810.28;5015501;28;46473;-80
2021/07/17 06:50:27;;;;;;;;;23.50;21.50;;;;;17.18;67.10;101811.22;5015588;28;45988;-80
2021/07/17 06:52:52;;;;;;;;;30.50;25.25;;;;;17.12;67.38;101793.16;5015757;28;45496;-79
2021/07/17 06:58:39;;;;;;;;;29.00;23.75;;;;;17.39;67.13;101832.50;5014429;28;46234;-80
2021/07/17 07:01:05;;;;;;;;;27.75;25.25;;;;;17.33;67.19;101815.28;4997852;28;46114;-81
2021/07/17 07:03:30;;;;;;;;;29.00;25.00;;;;;17.44;67.38;101835.63;5015674;28;45736;-80
2021/07/17 07:05:57;;;;;;;;;29.50;28.75;;;;;17.47;67.39;101835.41;5018774;28;45681;-81
2021/07/17 07:08:22;;;;;;;;;27.75;26.25;;;;;17.51;67.43;101832.38;5023721;28;45949;-80
2021/07/17 07:14:10;;;;;;;;;28.00;25.75;;;;;17.56;67.03;101826.69;5022280;28;45746;-79
2021/07/17 07:16:35;;;;;;;;;29.75;24.75;;;;;17.52;67.20;101807.56;5022400;28;45584;-81
2021/07/17 07:19:01;;;;;;;;;29.75;25.75;;;;;17.63;67.28;101821.78;5003706;28;48006;-80
2021/07/17 07:21:26;;;;;;;;;26.75;25.75;;;;;17.62;67.42;101818.28;5018473;28;46340;-79
2021/07/17 07:23:51;;;;;;;;;25.75;23.00;;;;;17.77;67.07;101834.75;5016058;28;45556;-80
2021/07/17 07:26:17;;;;;;;;;27.25;24.50;;;;;17.77;67.49;101840.03;5015306;28;45720;-78
2021/07/17 07:28:42;;;;;;;;;29.50;28.00;;;;;17.75;66.90;101829.59;5014867;28;45567;-80
2021/07/17 07:31:08;;;;;;;;;32.00;28.50;;;;;17.86;67.34;101850.75;4997126;28;48191;-80
2021/07/17 07:33:33;;;;;;;;;31.50;26.50;;;;;17.81;67.16;101838.84;5014987;28;45500;-80
2021/07/17 07:35:59;;;;;;;;;29.50;25.25;;;;;17.87;67.40;101838.31;5015245;28;45507;-80
2021/07/17 07:38:24;;;;;;;;;31.25;25.75;;;;;18.01;67.11;101861.91;5015242;28;46627;-80
2021/07/17 07:44:11;;;;;;;;;35.00;30.00;;;;;18.09;67.17;101843.53;5014766;28;45584;-80
2021/07/17 07:46:38;;;;;;;;;31.50;27.75;;;;;18.15;67.10;101856.28;5015256;28;45556;-80
2021/07/17 07:49:05;;;;;;;;;26.00;23.50;;;;;18.19;67.10;101857.72;5014906;28;46246;-79
2021/07/17 07:51:31;;;;;;;;;28.50;27.75;;;;;18.26;66.72;101853.59;5014877;28;46256;-80
2021/07/17 07:53:56;;;;;;;;;27.25;25.50;;;;;18.16;66.86;101846.53;5014800;28;45519;-80
2021/07/17 07:56:22;;;;;;;;;30.75;27.00;;;;;18.34;67.03;101863.59;5014481;28;45835;-81
2021/07/17 07:58:47;;;;;;;;;29.75;26.50;;;;;18.29;66.43;101847.22;5013181;28;46623;-81
2021/07/17 08:01:13;;;;;;;;;28.50;25.75;;;;;18.40;66.63;101855.97;5015066;28;46463;-82
2021/07/17 08:03:38;;;;;;;;;32.75;28.50;;;;;18.37;66.90;101855.34;5014699;28;45985;-81
2021/07/17 08:06:04;;;;;;;;;32.50;27.75;;;;;18.45;66.94;101861.72;5014391;28;45493;-81
2021/07/17 08:08:29;;;;;;;;;34.75;28.75;;;;;18.49;66.77;101874.72;4996464;28;45552;-80
2021/07/17 08:14:17;;;;;;;;;28.50;26.75;;;;;18.38;66.78;101841.97;5014045;28;45602;-81
2021/07/17 08:16:42;;;;;;;;;30.25;29.00;;;;;18.39;66.75;101841.00;5014591;28;45611;-81
2021/07/17 08:19:08;;;;;;;;;33.50;27.25;;;;;18.62;66.82;101875.41;5014435;28;46609;-80
2021/07/17 08:21:33;;;;;;;;;30.00;26.75;;;;;18.67;66.74;101867.91;5014255;28;46411;-80
2021/07/17 08:23:59;;;;;;;;;30.25;28.25;;;;;18.60;66.27;101846.31;5014110;28;45694;-80
2021/07/17 08:26:25;;;;;;;;;27.75;27.25;;;;;18.69;66.74;101850.84;5014328;28;45544;-80
2021/07/17 08:28:50;;;;;;;;;30.50;28.75;;;;;18.82;66.80;101870.09;5014109;28;46433;-80
2021/07/17 08:31:16;;;;;;;;;30.75;27.75;;;;;18.61;66.14;101818.81;5014208;28;45722;-81
2021/07/17 08:33:41;;;;;;;;;31.00;27.50;;;;;18.87;66.67;101856.41;5014092;28;45636;-82
2021/07/17 08:36:07;;;;;;;;;30.75;28.25;;;;;18.87;66.29;101859.06;5014309;28;45505;-81
2021/07/17 08:38:32;;;;;;;;;32.25;30.00;;;;;18.89;66.19;101859.78;5014088;28;46766;-81
2021/07/17 08:44:19;;;;;;;;;28.75;25.00;;;;;18.99;66.57;101859.81;5013356;28;45621;-80
2021/07/17 08:46:45;;;;;;;;;30.50;29.25;;;;;19.06;66.12;101861.78;5014084;28;45563;-82
2021/07/17 08:49:11;;;;;;;;;29.50;28.25;;;;;18.92;65.92;101834.75;5013636;28;45479;-81
2021/07/17 08:51:37;;;;;;;;;29.25;26.25;;;;;19.15;65.95;101858.34;5013744;28;45918;-80
2021/07/17 08:54:03;;;;;;;;;29.25;27.75;;;;;19.15;66.10;101854.84;5013610;28;45520;-81
2021/07/17 08:56:29;;;;;;;;;33.25;30.00;;;;;19.25;66.07;101861.03;5013750;28;45508;-81
2021/07/17 08:58:55;;;;;;;;;29.25;25.75;;;;;19.21;65.89;101846.34;5013387;28;46600;-80
2021/07/17 09:01:21;;;;;;;;;34.00;29.50;;;;;19.39;66.02;101868.63;5013813;28;45962;-80
2021/07/17 09:03:48;;;;;;;;;30.00;28.00;;;;;19.35;65.49;101847.78;5013820;28;45764;-79
2021/07/17 09:06:13;;;;;;;;;31.00;26.75;;;;;19.36;65.73;101847.66;5013719;28;45955;-81
2021/07/17 09:08:38;;;;;;;;;31.75;25.25;;;;;19.41;65.42;101841.94;5013926;28;45648;-81
2021/07/17 09:14:43;;;;;;;;;33.75;28.25;;;;;19.67;65.57;101859.94;5013071;28;45602;-81
2021/07/17 09:17:09;;;;;;;;;25.75;24.50;;;;;19.71;64.99;101852.50;5014109;28;45898;-81
2021/07/17 09:19:34;;;;;;;;;24.50;24.00;;;;;19.77;65.42;101849.31;5014710;28;45734;-79
2021/07/17 09:22:01;;;;;;;;;28.50;26.75;;;;;19.83;65.51;101848.75;5014042;28;45731;-81
2021/07/17 09:24:26;;;;;;;;;27.50;24.75;;;;;19.88;64.90;101857.16;5014608;28;45615;-79
2021/07/17 09:26:56;;;;;;;;;27.75;23.25;;;;;19.88;64.76;101837.69;5014195;28;45797;-80
2021/07/17 09:29:22;;;;;;;;;28.25;26.50;;;;;20.02;64.99;101847.94;5013900;28;45608;-81
2021/07/17 09:31:50;;;;;;;;;30.25;24.50;;;;;20.09;64.60;101854.34;5013972;28;45675;-80
2021/07/17 09:34:22;;;;;;;;;32.25;28.25;;;;;20.13;64.58;101851.28;5013598;28;45969;-79
2021/07/17 09:36:54;;;;;;;;;27.25;24.00;;;;;20.17;64.58;101851.84;4998282;28;45971;-82
2021/07/17 09:39:23;;;;;;;;;25.50;23.50;;;;;20.22;64.32;101848.75;5020335;28;45929;-82
2021/07/17 09:41:55;;;;;;;;;27.25;25.50;;;;;20.26;64.04;101848.34;5020709;28;46046;-80
2021/07/17 09:44:24;;;;;;;;;26.50;25.25;;;;;20.28;64.26;101843.72;5020084;28;45587;-81
2021/07/17 09:46:50;;;;;;;;;29.00;27.75;;;;;20.18;63.97;101816.28;5020578;28;45761;-80
2021/07/17 09:49:17;;;;;;;;;26.00;24.00;;;;;20.36;63.98;101840.38;5019629;28;46781;-82
2021/07/17 09:51:43;;;;;;;;;26.25;24.75;;;;;20.39;63.98;101837.44;5017792;28;45961;-79
2021/07/17 09:54:09;;;;;;;;;27.50;22.25;;;;;20.40;63.86;101834.66;5013520;28;45914;-80
2021/07/17 10:00:07;;;;;;;;;23.50;21.75;;;;;20.43;63.75;101828.19;5001702;28;45747;-82
2021/07/17 10:02:36;;;;;;;;;21.50;19.50;;;;;20.48;63.56;101832.09;5013550;28;46221;-81
2021/07/17 10:05:05;;;;;;;;;28.25;24.25;;;;;20.58;63.71;101845.38;5013253;28;45599;-81
2021/07/17 10:07:32;;;;;;;;;26.00;23.75;;;;;20.41;63.39;101800.84;5013684;28;45835;-80
2021/07/17 10:09:57;;;;;;;;;26.25;23.25;;;;;20.65;63.23;101832.34;5013573;28;46566;-80
2021/07/17 10:12:34;;;;;;;;;22.00;20.50;;;;;20.69;62.79;101831.91;5013368;28;45638;-81
2021/07/17 10:15:00;;;;;;;;;21.00;19.25;;;;;20.75;62.69;101843.78;5012922;28;45481;-80
2021/07/17 10:17:37;;;;;;;;;23.75;21.50;;;;;20.78;62.69;101824.88;5013063;28;45579;-80
2021/07/17 10:20:10;;;;;;;;;21.25;19.00;;;;;20.74;62.59;101821.66;5013070;28;46419;-81
2021/07/17 10:22:37;;;;;;;;;22.25;20.75;;;;;20.75;62.54;101827.81;5015491;28;46648;-81
2021/07/17 10:25:04;;;;;;;;;25.25;20.75;;;;;20.83;62.27;101827.94;5016141;28;45744;-81
2021/07/17 10:27:30;;;;;;;;;24.00;20.75;;;;;20.86;62.50;101836.47;5016441;28;45651;-79
2021/07/17 10:29:56;;;;;;;;;25.25;21.25;;;;;20.80;62.52;101822.88;5016056;28;45627;-80
2021/07/17 10:32:22;;;;;;;;;21.50;20.00;;;;;20.92;62.11;101830.56;5016047;28;46230;-80
2021/07/17 10:34:48;;;;;;;;;28.25;24.00;;;;;21.00;62.04;101839.66;5015907;28;45648;-80
2021/07/17 10:37:25;;;;;;;;;26.75;22.50;;;;;20.95;61.71;101824.09;4998868;28;45680;-80
2021/07/17 10:40:11;;;;;;;;;22.75;20.75;;;;;21.06;61.86;101837.22;5015905;28;46973;-79
2021/07/17 10:42:38;;;;;;;;;22.50;20.00;;;;;21.10;61.53;101837.78;5015915;28;46514;-81
2021/07/17 10:45:05;;;;;;;;;23.25;21.50;;;;;21.05;61.38;101816.91;4998229;28;45738;-80
2021/07/17 10:47:38;;;;;;;;;25.50;24.00;;;;;20.88;61.67;101781.22;5016310;28;45803;-81
2021/07/17 10:50:08;;;;;;;;;22.75;21.00;;;;;21.18;61.59;101828.09;5015993;28;46310;-80
2021/07/17 10:52:34;;;;;;;;;24.25;22.50;;;;;21.19;61.48;101819.13;5015834;28;45925;-80
2021/07/17 10:55:37;;;;;;;;;22.75;20.75;;;;;21.27;61.22;101826.34;5015562;28;45524;-80
2021/07/17 10:58:13;;;;;;;;;22.00;20.00;;;;;21.28;61.44;101823.53;4935097;28;45786;-81
2021/07/17 11:00:46;;;;;;;;;21.50;20.50;;;;;21.32;61.26;101816.09;4934983;28;45972;-78
2021/07/17 11:03:21;;;;;;;;;22.00;18.50;;;;;21.39;60.93;101827.00;4934587;28;46051;-80
2021/07/17 11:05:48;;;;;;;;;30.00;23.25;;;;;21.26;60.57;101793.53;4934504;28;45889;-80
2021/07/17 11:08:37;;;;;;;;;25.50;21.50;;;;;21.43;61.07;101818.53;4934997;28;45930;-79
2021/07/17 11:11:27;;;;;;;;;26.00;21.75;;;;;21.46;60.51;101817.41;4859029;29;45723;-81
2021/07/17 11:13:54;;;;;;;;;23.00;20.00;;;;;21.48;60.88;101818.97;4860347;29;46105;-79
2021/07/17 11:16:43;;;;;;;;;24.50;22.50;;;;;21.44;60.80;101796.22;4863974;29;45641;-79
2021/07/17 11:19:28;;;;;;;;;26.75;21.75;;;;;21.52;60.91;101804.31;4863688;29;45724;-80
2021/07/17 11:22:10;;;;;;;;;25.25;24.50;;;;;21.59;60.76;101815.25;4864223;29;46508;-79
2021/07/17 11:24:35;;;;;;;;;22.00;20.00;;;;;21.65;60.28;101806.59;4861290;29;46646;-80
2021/07/17 11:27:08;;;;;;;;;21.75;20.75;;;;;21.70;60.31;101813.16;4860186;29;45574;-80
2021/07/17 11:29:41;;;;;;;;;23.50;22.25;;;;;21.69;60.37;101810.66;4863420;29;45753;-79
2021/07/17 11:32:09;;;;;;;;;26.75;21.50;;;;;21.69;60.05;101810.66;4902054;28;46219;-80
2021/07/17 11:34:39;;;;;;;;;27.25;25.00;;;;;21.75;60.17;101818.88;4938294;28;46983;-78
2021/07/17 11:37:07;;;;;;;;;26.00;23.75;;;;;21.83;60.34;101815.47;4937409;28;45749;-80
2021/07/17 11:39:35;;;;;;;;;27.00;24.75;;;;;21.90;60.09;101816.53;4936925;28;45674;-78
2021/07/17 11:42:03;;;;;;;;;25.75;21.75;;;;;21.93;59.96;101813.56;4936456;28;45518;-79
2021/07/17 11:44:31;;;;;;;;;28.25;23.00;;;;;21.92;60.01;101800.34;4936190;28;45639;-79
2021/07/17 11:47:03;;;;;;;;;25.25;24.00;;;;;22.00;60.09;101806.66;4938480;28;45748;-80
2021/07/17 11:49:35;;;;;;;;;24.25;21.75;;;;;22.06;59.91;101808.72;5015007;28;45594;-79
2021/07/17 11:52:04;;;;;;;;;24.50;20.50;;;;;21.99;59.43;101790.78;5014916;28;46614;-80
2021/07/17 11:54:36;;;;;;;;;24.00;23.00;;;;;22.15;59.24;101812.25;5016549;28;46167;-78
2021/07/17 11:57:07;;;;;;;;;22.25;21.25;;;;;22.18;59.19;101810.16;5017046;28;45614;-79
2021/07/17 11:59:35;;;;;;;;;26.00;20.75;;;;;22.19;59.32;101800.28;5017144;28;45631;-80
2021/07/17 12:02:13;;;;;;;;;23.25;21.25;;;;;22.23;59.45;101800.81;5019271;28;45698;-79
2021/07/17 12:04:43;;;;;;;;;27.25;24.00;;;;;22.26;59.13;101803.16;5020966;28;46145;-79
2021/07/17 12:07:14;;;;;;;;;25.75;23.00;;;;;22.22;59.05;101797.31;5020584;28;45566;-79
2021/07/17 12:13:03;;;;;;;;;22.75;21.75;;;;;22.35;58.48;101788.91;4935231;28;45697;-80
2021/07/17 12:15:35;;;;;;;;;26.50;24.25;;;;;22.44;58.98;101802.16;4917955;28;47253;-80
2021/07/17 12:18:04;;;;;;;;;27.75;24.25;;;;;22.50;58.43;101800.69;4934273;28;45661;-79
2021/07/17 12:20:35;;;;;;;;;25.25;21.75;;;;;22.54;58.55;101800.22;4934255;28;45825;-79